Time;durP1;ratioP1;P1;durP2;ratioP2;P2;SDS_P1;SDS_P2;PMS_P1;PMS_P2;Temp;Humidity;BMP_temperature;BMP_pressure;BME280_temperature;BME280_humidity;BME280_pressure;Samples;Min_cycle;Max_cycle;Signal;HPM_P1;HPM_P2
2022/07/15 00:00:24;;;;;;;2.93;0.80;;;;;;;16.54;100.00;102222.13;2616330;36;20046;-58
2022/07/15 00:02:52;;;;;;;1.97;0.80;;;;;;;16.55;100.00;102219.25;2616867;36;20070;-57
2022/07/15 00:05:23;;;;;;;3.53;0.80;;;;;;;16.50;100.00;102215.25;2617636;36;20057;-55
2022/07/15 00:07:58;;;;;;;5.28;1.30;;;;;;;16.36;100.00;102213.81;2617744;36;20026;-54
2022/07/15 00:10:27;;;;;;;4.10;1.00;;;;;;;16.32;100.00;102207.78;2617354;36;20039;-58
2022/07/15 00:12:58;;;;;;;2.25;0.90;;;;;;;16.37;100.00;102219.09;2615943;31;20030;-59
2022/07/15 00:15:29;;;;;;;5.80;1.10;;;;;;;16.24;100.00;102216.66;2615973;36;20031;-57
2022/07/15 00:18:01;;;;;;;1.63;0.90;;;;;;;16.26;100.00;102216.50;2616371;36;20061;-57
2022/07/15 00:20:33;;;;;;;6.03;0.95;;;;;;;16.27;100.00;102219.06;2615174;31;20042;-56
2022/07/15 00:23:05;;;;;;;5.05;1.10;;;;;;;16.27;100.00;102212.78;2615103;36;20165;-60
2022/07/15 00:25:34;;;;;;;2.67;0.80;;;;;;;16.31;100.00;102205.22;2614280;36;20057;-58
2022/07/15 00:28:04;;;;;;;4.72;1.10;;;;;;;16.29;100.00;102208.06;2615808;36;20023;-58
2022/07/15 00:30:34;;;;;;;4.60;0.80;;;;;;;16.19;100.00;102218.06;2615755;31;20034;-59
2022/07/15 00:33:04;;;;;;;4.63;1.15;;;;;;;16.15;100.00;102209.34;2616159;36;20532;-55
2022/07/15 00:35:33;;;;;;;2.58;0.90;;;;;;;16.27;100.00;102215.50;2615622;36;20030;-59
2022/07/15 00:38:05;;;;;;;3.03;0.93;;;;;;;16.10;100.00;102209.75;2615650;36;20031;-57
2022/07/15 00:40:41;;;;;;;6.10;0.93;;;;;;;15.96;100.00;102209.28;2615623;36;20045;-57
2022/07/15 00:43:09;;;;;;;3.10;1.02;;;;;;;16.03;100.00;102211.31;2615036;36;20030;-57
2022/07/15 00:45:45;;;;;;;3.87;0.90;;;;;;;16.04;100.00;102213.00;2615659;36;20042;-57
2022/07/15 00:48:13;;;;;;;1.90;0.80;;;;;;;16.05;100.00;102211.19;2616036;36;20041;-60
2022/07/15 00:50:42;;;;;;;2.47;0.80;;;;;;;15.95;100.00;102208.44;2615597;36;20039;-59
2022/07/15 00:53:19;;;;;;;4.10;0.88;;;;;;;15.86;100.00;102206.56;2615761;36;20074;-57
2022/07/15 00:55:48;;;;;;;2.33;0.80;;;;;;;15.88;100.00;102204.53;2615571;36;20027;-58
2022/07/15 00:58:19;;;;;;;3.28;0.98;;;;;;;15.87;100.00;102203.69;2615929;36;20035;-54
2022/07/15 01:00:50;;;;;;;3.97;1.10;;;;;;;15.72;100.00;102205.91;2615970;31;20031;-56
2022/07/15 01:03:19;;;;;;;5.78;1.05;;;;;;;15.66;100.00;102209.13;2615149;36;20022;-58
2022/07/15 01:05:50;;;;;;;3.78;0.93;;;;;;;15.57;100.00;102207.25;2615979;36;20023;-57
2022/07/15 01:08:21;;;;;;;5.10;1.08;;;;;;;15.56;100.00;102210.94;2615205;36;20053;-54
2022/07/15 01:10:50;;;;;;;2.60;0.90;;;;;;;15.45;100.00;102205.63;2615232;36;20590;-54
2022/07/15 01:13:19;;;;;;;;;;;;;;;15.32;100.00;102203.13;2615493;36;20039;-58
2022/07/15 01:15:48;;;;;;;2.93;1.03;;;;;;;15.29;100.00;102209.69;2615397;36;19981;-59
2022/07/15 01:18:16;;;;;;;4.55;1.05;;;;;;;15.24;100.00;102214.66;2614236;36;20307;-58
2022/07/15 01:20:48;;;;;;;3.30;1.07;;;;;;;15.14;100.00;102211.88;2616276;36;20431;-61
2022/07/15 01:23:20;;;;;;;2.60;1.10;;;;;;;15.16;100.00;102209.03;2615052;31;20057;-59
2022/07/15 01:25:49;;;;;;;3.85;0.93;;;;;;;15.13;100.00;102204.72;2615399;36;20045;-60
2022/07/15 01:28:17;;;;;;;0.88;0.70;;;;;;;14.98;100.00;102206.91;2614629;31;20563;-52
2022/07/15 01:30:45;;;;;;;3.08;1.15;;;;;;;14.95;100.00;102214.47;2615161;36;20034;-57
2022/07/15 01:33:14;;;;;;;2.03;0.80;;;;;;;14.85;100.00;102212.50;2614349;36;20030;-56
2022/07/15 01:35:42;;;;;;;4.78;1.20;;;;;;;14.83;100.00;102210.94;2615984;36;20435;-57
2022/07/15 01:38:13;;;;;;;4.03;0.82;;;;;;;14.81;100.00;102215.63;2614436;36;20178;-58
2022/07/15 01:40:42;;;;;;;4.80;0.80;;;;;;;14.71;100.00;102213.72;2615143;36;20065;-56
2022/07/15 01:43:10;;;;;;;5.13;1.00;;;;;;;14.73;100.00;102213.56;2614573;36;20035;-56
2022/07/15 01:45:38;;;;;;;3.10;1.00;;;;;;;14.64;100.00;102212.50;2615385;31;20039;-58
2022/07/15 01:49:21;;;;;;;2.13;1.00;;;;;;;14.49;100.00;102216.47;2615061;36;20041;-57
2022/07/15 01:50:53;;;;;;;;;;;;;;;14.50;100.00;102212.75;2614916;36;20812;-56
2022/07/15 01:53:25;;;;;;;5.65;0.93;;;;;;;14.44;100.00;102210.56;2614761;31;19974;-57
2022/07/15 01:55:53;;;;;;;6.53;1.30;;;;;;;14.36;100.00;102219.34;2614982;36;20096;-57
2022/07/15 01:58:22;;;;;;;4.85;1.60;;;;;;;14.31;100.00;102214.31;2615207;36;20034;-57
2022/07/15 02:00:53;;;;;;;5.50;0.98;;;;;;;14.30;100.00;102220.72;2615602;31;20525;-54
2022/07/15 02:03:21;;;;;;;5.25;1.23;;;;;;;14.34;100.00;102224.91;2615187;36;20061;-58
2022/07/15 02:05:50;;;;;;;4.87;0.97;;;;;;;14.42;100.00;102209.84;2615843;36;20053;-55
2022/07/15 02:08:18;;;;;;;3.42;0.90;;;;;;;14.48;100.00;102217.47;2615081;36;20416;-57
2022/07/15 02:10:51;;;;;;;2.60;1.10;;;;;;;14.48;100.00;102217.47;2613654;36;20603;-58
2022/07/15 02:13:19;;;;;;;2.78;0.90;;;;;;;14.52;100.00;102208.94;2615035;36;20543;-56
2022/07/15 02:15:48;;;;;;;1.90;0.80;;;;;;;14.55;100.00;102205.13;2615709;36;20046;-58
2022/07/15 02:18:19;;;;;;;5.00;1.57;;;;;;;14.54;100.00;102203.41;2614303;36;20549;-58
2022/07/15 02:20:49;;;;;;;2.35;0.95;;;;;;;14.60;100.00;102208.28;2614606;36;20029;-55
2022/07/15 02:23:18;;;;;;;3.08;0.90;;;;;;;14.55;100.00;102205.97;2614525;36;20038;-52
2022/07/15 02:25:49;;;;;;;2.93;1.07;;;;;;;14.64;100.00;102208.94;2615181;36;20039;-57
2022/07/15 02:28:18;;;;;;;4.10;1.25;;;;;;;14.48;100.00;102206.63;2613193;36;20042;-57
2022/07/15 02:30:49;;;;;;;1.63;0.90;;;;;;;14.51;100.00;102204.50;2615713;36;20030;-55
2022/07/15 02:33:18;;;;;;;5.78;1.02;;;;;;;14.62;100.00;102209.06;2615111;36;20026;-57
2022/07/15 02:35:49;;;;;;;2.83;0.80;;;;;;;14.66;100.00;102213.25;2615394;36;20050;-53
2022/07/15 02:38:22;;;;;;;2.20;0.90;;;;;;;14.61;100.00;102210.06;2613920;36;20035;-56
2022/07/15 02:40:53;;;;;;;1.85;0.90;;;;;;;14.58;100.00;102209.44;2615835;31;20437;-59
2022/07/15 02:43:21;;;;;;;2.85;0.93;;;;;;;14.55;100.00;102210.53;2615576;31;20038;-54
2022/07/15 02:45:50;;;;;;;3.10;0.93;;;;;;;14.56;100.00;102217.69;2613995;31;20030;-57
2022/07/15 02:48:18;;;;;;;2.53;0.80;;;;;;;14.59;100.00;102217.44;2608304;36;20069;-56
2022/07/15 02:50:47;;;;;;;1.48;0.80;;;;;;;14.62;100.00;102217.22;2616830;31;20594;-58
2022/07/15 02:53:18;;;;;;;3.60;1.00;;;;;;;14.62;100.00;102219.03;2616760;36;20532;-60
2022/07/15 02:55:46;;;;;;;13.95;3.92;;;;;;;14.55;100.00;102222.22;2616540;36;20034;-55
2022/07/15 02:58:17;;;;;;;5.20;1.13;;;;;;;14.61;100.00;102231.72;2617076;36;20483;-57
2022/07/15 03:00:45;;;;;;;2.17;0.80;;;;;;;14.59;100.00;102227.38;2617186;36;20038;-57
2022/07/15 03:03:14;;;;;;;3.90;1.10;;;;;;;14.67;100.00;102224.94;2617573;36;20034;-56
2022/07/15 03:05:49;;;;;;;1.73;0.90;;;;;;;14.58;100.00;102221.13;2618149;39;20431;-51
2022/07/15 03:08:17;;;;;;;2.22;0.90;;;;;;;14.55;100.00;102215.97;2615993;36;20049;-58
2022/07/15 03:10:46;;;;;;;4.68;1.08;;;;;;;14.50;100.00;102218.19;2616895;36;20038;-55
2022/07/15 03:13:17;;;;;;;5.40;1.02;;;;;;;14.50;100.00;102229.03;2616656;31;20174;-58
2022/07/15 03:15:45;;;;;;;5.60;1.00;;;;;;;14.46;100.00;102227.59;2615754;36;20039;-57
2022/07/15 03:18:13;;;;;;;1.88;0.70;;;;;;;14.49;100.00;102235.44;2616003;36;20555;-54
2022/07/15 03:20:42;;;;;;;3.03;0.90;;;;;;;14.55;100.00;102224.94;2616967;36;20034;-56
2022/07/15 03:23:10;;;;;;;5.37;0.90;;;;;;;14.66;100.00;102240.34;2615910;36;20039;-58
2022/07/15 03:25:39;;;;;;;1.13;0.90;;;;;;;14.84;100.00;102237.03;2616694;31;20061;-57
2022/07/15 03:28:07;;;;;;;3.42;1.10;;;;;;;14.85;100.00;102238.78;2616607;31;20066;-54
2022/07/15 03:30:41;;;;;;;3.08;1.05;;;;;;;14.88;100.00;102238.50;2616488;36;20035;-57
2022/07/15 03:33:09;;;;;;;2.97;0.80;;;;;;;14.92;100.00;102245.41;2615889;36;20050;-58
2022/07/15 03:35:41;;;;;;;3.57;1.10;;;;;;;15.03;100.00;102239.03;2616679;36;20438;-57
2022/07/15 03:38:09;;;;;;;2.63;0.82;;;;;;;15.00;100.00;102247.44;2616224;36;20622;-58
2022/07/15 03:40:37;;;;;;;3.45;1.00;;;;;;;15.04;100.00;102247.03;2616247;36;20038;-57
2022/07/15 03:43:06;;;;;;;4.03;1.40;;;;;;;15.00;100.00;102242.03;2615837;36;20057;-59
2022/07/15 03:45:34;;;;;;;4.85;1.05;;;;;;;14.98;100.00;102250.28;2616393;36;20555;-53
2022/07/15 03:48:06;;;;;;;4.32;1.10;;;;;;;15.08;100.00;102261.22;2616425;36;20653;-57
2022/07/15 03:50:37;;;;;;;6.57;1.10;;;;;;;15.14;100.00;102265.25;2615649;31;20031;-57
2022/07/15 03:53:06;;;;;;;3.92;1.42;;;;;;;15.26;100.00;102268.78;2615437;36;20027;-57
2022/07/15 03:55:36;;;;;;;5.40;1.17;;;;;;;15.38;100.00;102275.84;2616905;36;20401;-56
2022/07/15 03:58:04;;;;;;;3.30;0.82;;;;;;;15.51;100.00;102275.63;2615913;36;20042;-56
2022/07/15 04:00:33;;;;;;;2.57;0.93;;;;;;;15.34;100.00;102283.41;2615740;36;20603;-56
2022/07/15 04:03:01;;;;;;;3.03;0.90;;;;;;;15.38;100.00;102279.41;2615743;36;20416;-55
2022/07/15 04:05:38;;;;;;;2.75;0.90;;;;;;;15.46;100.00;102280.59;2616027;36;20034;-60
2022/07/15 04:08:06;;;;;;;5.28;1.13;;;;;;;15.49;100.00;102283.03;2615411;36;20023;-61
2022/07/15 04:10:35;;;;;;;2.05;0.90;;;;;;;15.58;100.00;102285.81;2615385;31;20086;-53
2022/07/15 04:13:03;;;;;;;5.27;1.20;;;;;;;15.57;100.00;102289.50;2615931;31;20085;-59
2022/07/15 04:15:32;;;;;;;4.23;0.97;;;;;;;15.58;100.00;102284.97;2615839;36;20306;-56
2022/07/15 04:18:01;;;;;;;3.22;0.82;;;;;;;15.65;100.00;102288.88;2614761;36;20042;-59
2022/07/15 04:20:32;;;;;;;4.00;0.90;;;;;;;15.69;100.00;102295.72;2615022;36;20053;-56
2022/07/15 04:23:01;;;;;;;4.38;1.02;;;;;;;15.74;100.00;102290.75;2615959;31;20436;-56
2022/07/15 04:25:31;;;;;;;3.80;1.17;;;;;;;15.85;100.00;102287.13;2615354;36;20551;-58
2022/07/15 04:27:59;;;;;;;7.55;1.30;;;;;;;15.82;100.00;102281.97;2615668;36;20037;-58
2022/07/15 04:30:28;;;;;;;2.37;0.80;;;;;;;15.73;100.00;102291.75;2615593;36;20035;-57
2022/07/15 04:32:56;;;;;;;3.85;0.80;;;;;;;15.57;100.00;102286.78;2615047;36;20034;-56
2022/07/15 04:35:24;;;;;;;3.90;0.95;;;;;;;15.63;100.00;102289.97;2615281;31;20062;-57
2022/07/15 04:37:55;;;;;;;2.67;0.83;;;;;;;15.63;100.00;102298.13;2615942;36;20065;-57
2022/07/15 04:40:24;;;;;;;6.63;1.30;;;;;;;15.51;100.00;102300.06;2614385;36;20038;-55
2022/07/15 04:42:52;;;;;;;2.63;0.77;;;;;;;15.41;100.00;102298.16;2615553;36;20435;-57
2022/07/15 04:45:20;;;;;;;3.87;0.90;;;;;;;15.32;100.00;102298.06;2615268;31;20023;-56
2022/07/15 04:47:48;;;;;;;6.10;1.20;;;;;;;15.34;100.00;102296.97;2615074;36;20034;-58
2022/07/15 04:53:00;;;;;;;3.45;1.13;;;;;;;15.46;100.00;102297.75;2615043;36;20038;-55
2022/07/15 04:55:29;;;;;;;6.88;1.23;;;;;;;15.59;100.00;102302.94;2614551;36;20071;-57
2022/07/15 04:57:57;;;;;;;3.75;0.85;;;;;;;15.67;100.00;102305.00;2615710;36;20090;-57
2022/07/15 05:00:27;;;;;;;4.55;1.00;;;;;;;15.91;100.00;102308.28;2615267;36;20034;-57
2022/07/15 05:02:56;;;;;;;3.30;0.80;;;;;;;15.94;100.00;102307.16;2615125;36;20057;-59
2022/07/15 05:05:26;;;;;;;5.25;0.98;;;;;;;16.27;100.00;102297.03;2614331;36;20038;-60
2022/07/15 05:07:54;;;;;;;2.13;0.80;;;;;;;16.40;100.00;102294.03;2615532;36;20031;-57
2022/07/15 05:10:28;;;;;;;2.27;0.80;;;;;;;16.32;100.00;102297.44;2614970;31;20085;-59
2022/07/15 05:12:57;;;;;;;3.78;0.90;;;;;;;16.38;100.00;102294.16;2615417;36;20447;-57
2022/07/15 05:15:26;;;;;;;7.15;1.27;;;;;;;16.48;100.00;102302.34;2614931;36;20129;-58
2022/07/15 05:17:54;;;;;;;4.18;1.17;;;;;;;16.52;100.00;102292.03;2615263;36;20034;-58
2022/07/15 05:20:22;;;;;;;3.85;1.15;;;;;;;16.69;100.00;102306.81;2615041;36;20034;-57
2022/07/15 05:22:51;;;;;;;2.83;0.70;;;;;;;16.76;100.00;102292.50;2615460;36;20463;-57
2022/07/15 05:25:20;;;;;;;3.03;0.95;;;;;;;16.57;100.00;102303.38;2614202;36;20133;-57
2022/07/15 05:27:51;;;;;;;5.05;0.90;;;;;;;16.44;100.00;102299.06;2615341;36;20377;-58
2022/07/15 05:30:19;;;;;;;3.58;1.00;;;;;;;16.36;100.00;102298.91;2614637;36;20585;-57
2022/07/15 05:32:48;;;;;;;3.10;0.80;;;;;;;16.01;100.00;102302.91;2615350;36;20061;-56
2022/07/15 05:35:17;;;;;;;3.90;0.90;;;;;;;15.75;100.00;102307.91;2613377;36;20038;-58
2022/07/15 05:37:46;;;;;;;3.85;1.20;;;;;;;15.65;100.00;102307.88;2615314;36;20288;-58
2022/07/15 05:40:15;;;;;;;3.35;0.98;;;;;;;15.71;100.00;102306.47;2614414;36;20039;-58
2022/07/15 05:42:44;;;;;;;3.20;1.10;;;;;;;15.77;100.00;102312.19;2615369;36;20050;-58
2022/07/15 05:45:15;;;;;;;3.53;1.07;;;;;;;15.58;100.00;102312.09;2614482;36;20042;-58
2022/07/15 05:47:49;;;;;;;5.93;1.45;;;;;;;15.57;100.00;102310.38;2615406;36;20042;-59
2022/07/15 05:50:18;;;;;;;8.15;1.55;;;;;;;15.62;100.00;102305.41;2614266;36;20034;-58
2022/07/15 05:52:49;;;;;;;7.95;1.83;;;;;;;15.56;100.00;102309.53;2615316;36;20034;-57
2022/07/15 05:55:17;;;;;;;4.75;1.48;;;;;;;15.86;100.00;102304.28;2614687;36;20038;-59
2022/07/15 05:57:49;;;;;;;7.93;1.50;;;;;;;15.89;100.00;102304.00;2615717;36;20042;-52
2022/07/15 06:00:20;;;;;;;8.75;1.85;;;;;;;15.83;100.00;102299.13;2614308;36;20035;-57
2022/07/15 06:02:49;;;;;;;3.47;1.60;;;;;;;16.20;100.00;102298.56;2614990;36;20034;-57
2022/07/15 06:05:17;;;;;;;3.88;1.50;;;;;;;16.28;100.00;102285.13;2614271;36;20406;-55
2022/07/15 06:07:49;;;;;;;9.57;2.42;;;;;;;16.37;100.00;102297.91;2632425;36;20030;-56
2022/07/15 06:10:17;;;;;;;6.07;1.50;;;;;;;16.54;100.00;102292.78;2614747;31;20486;-57
2022/07/15 06:12:48;;;;;;;3.67;1.27;;;;;;;16.76;100.00;102292.50;2614929;36;20038;-57
2022/07/15 06:15:19;;;;;;;9.18;1.33;;;;;;;17.43;100.00;102292.69;2613968;36;20417;-51
2022/07/15 06:17:49;;;;;;;5.80;1.35;;;;;;;17.06;100.00;102287.13;2613800;36;20038;-56
2022/07/15 06:20:18;;;;;;;7.13;1.40;;;;;;;17.15;100.00;102295.28;2614743;36;20038;-58
2022/07/15 06:22:46;;;;;;;7.95;1.77;;;;;;;17.19;100.00;102295.84;2613928;36;20552;-57
2022/07/15 06:25:14;;;;;;;5.43;1.33;;;;;;;16.85;100.00;102301.69;2614567;36;20041;-58
2022/07/15 06:27:43;;;;;;;6.93;1.30;;;;;;;17.05;100.00;102301.72;2613379;36;20300;-59
2022/07/15 06:30:12;;;;;;;2.47;1.00;;;;;;;17.05;100.00;102297.16;2613168;31;20123;-57
2022/07/15 06:32:43;;;;;;;5.78;1.30;;;;;;;17.09;100.00;102304.03;2614114;31;20030;-58
2022/07/15 06:35:12;;;;;;;4.43;1.23;;;;;;;17.20;100.00;102305.72;2614330;36;20432;-57
2022/07/15 06:37:42;;;;;;;5.47;1.23;;;;;;;17.01;100.00;102303.88;2612751;36;20065;-59
2022/07/15 06:40:12;;;;;;;6.45;1.35;;;;;;;17.19;100.00;102306.72;2613589;36;20065;-56
2022/07/15 06:42:40;;;;;;;4.82;1.02;;;;;;;16.87;100.00;102309.69;2614640;36;20041;-58
2022/07/15 06:45:10;;;;;;;2.70;1.10;;;;;;;16.82;100.00;102305.53;2613579;36;20590;-55
2022/07/15 06:47:44;;;;;;;6.70;1.20;;;;;;;16.85;100.00;102306.28;2614648;36;20292;-59
2022/07/15 06:50:13;;;;;;;4.13;1.15;;;;;;;16.81;100.00;102305.69;2615649;36;20445;-57
2022/07/15 06:52:42;;;;;;;4.45;1.00;;;;;;;16.68;100.00;102314.13;2614838;36;20110;-60
2022/07/15 06:55:12;;;;;;;3.77;1.00;;;;;;;16.79;100.00;102311.25;2614863;36;20057;-56
2022/07/15 06:57:41;;;;;;;5.57;1.27;;;;;;;16.66;100.00;102307.97;2614094;36;20434;-57
2022/07/15 07:00:11;;;;;;;;;;;;;;;16.62;100.00;102311.94;2615357;31;20027;-56
2022/07/15 07:02:40;;;;;;;8.00;1.30;;;;;;;16.57;100.00;102325.13;2614455;36;19950;-57
2022/07/15 07:05:11;;;;;;;2.20;0.90;;;;;;;16.57;100.00;102322.41;2614553;36;20046;-57
2022/07/15 07:07:39;;;;;;;3.88;1.00;;;;;;;16.51;100.00;102317.53;2614007;36;20042;-56
2022/07/15 07:10:09;;;;;;;3.10;0.70;;;;;;;16.36;100.00;102317.91;2614616;31;20574;-61
2022/07/15 07:12:37;;;;;;;4.47;0.90;;;;;;;16.19;100.00;102319.41;2614300;36;20159;-57
2022/07/15 07:15:07;;;;;;;2.37;0.97;;;;;;;16.49;100.00;102316.78;2615526;36;20042;-61
2022/07/15 07:17:36;;;;;;;3.38;0.90;;;;;;;17.08;100.00;102318.63;2611293;36;20398;-57
2022/07/15 07:20:04;;;;;;;;;;;;;;;17.81;100.00;102322.66;2608078;36;20065;-60
2022/07/15 07:22:35;;;;;;;2.65;0.80;;;;;;;18.14;100.00;102315.84;2613573;36;19951;-56
2022/07/15 07:25:04;;;;;;;3.75;0.80;;;;;;;18.38;100.00;102323.44;2613849;36;20038;-56
2022/07/15 07:27:32;;;;;;;3.03;0.80;;;;;;;18.71;100.00;102325.69;2613808;36;20038;-55
2022/07/15 07:30:01;;;;;;;4.20;0.63;;;;;;;18.70;100.00;102318.53;2613665;36;20034;-57
2022/07/15 07:32:29;;;;;;;;;;;;;;;19.01;100.00;102326.38;2613282;36;20038;-57
2022/07/15 07:34:58;;;;;;;2.78;0.77;;;;;;;19.35;100.00;102320.19;2615307;36;20340;-57
2022/07/15 07:37:26;;;;;;;;;;;;;;;19.04;100.00;102321.44;2615527;36;20423;-57
2022/07/15 07:39:57;;;;;;;1.73;0.60;;;;;;;19.08;100.00;102327.47;2615148;36;20408;-60
2022/07/15 07:42:26;;;;;;;0.93;0.50;;;;;;;19.44;100.00;102319.22;2615504;31;20030;-54
2022/07/15 07:44:55;;;;;;;2.53;0.45;;;;;;;19.43;100.00;102323.84;2615472;31;20056;-56
2022/07/15 07:47:23;;;;;;;;;;;;;;;19.01;100.00;102320.91;2614743;36;20167;-57
2022/07/15 07:49:51;;;;;;;3.80;1.10;;;;;;;19.28;100.00;102319.09;2614578;31;19981;-57
2022/07/15 07:52:19;;;;;;;3.28;0.80;;;;;;;19.42;100.00;102321.28;2614808;31;20022;-59
2022/07/15 07:54:48;;;;;;;1.98;0.73;;;;;;;18.49;100.00;102316.94;2613635;36;20061;-58
2022/07/15 07:57:19;;;;;;;2.27;0.70;;;;;;;17.92;100.00;102321.63;2613954;36;20107;-57
2022/07/15 07:59:47;;;;;;;5.38;1.10;;;;;;;18.06;100.00;102323.88;2614356;36;20334;-61
2022/07/15 08:02:15;;;;;;;2.17;0.90;;;;;;;18.26;100.00;102321.09;2614480;36;20555;-58
2022/07/15 08:04:44;;;;;;;3.47;1.05;;;;;;;18.88;100.00;102322.16;2614431;36;20034;-57
2022/07/15 08:07:12;;;;;;;3.23;0.63;;;;;;;18.70;100.00;102318.53;2614541;36;20039;-58
2022/07/15 08:09:40;;;;;;;2.58;0.80;;;;;;;19.16;100.00;102313.03;2614526;36;20334;-57
2022/07/15 08:12:09;;;;;;;3.33;0.80;;;;;;;19.69;100.00;102317.50;2614437;36;20375;-57
2022/07/15 08:14:40;;;;;;;3.00;0.70;;;;;;;20.09;100.00;102310.59;2615482;36;20455;-57
2022/07/15 08:17:08;;;;;;;5.45;0.80;;;;;;;20.04;100.00;102323.06;2614779;36;20065;-57
2022/07/15 08:19:36;;;;;;;4.55;0.80;;;;;;;20.25;100.00;102311.69;2608708;36;20085;-57
2022/07/15 08:22:05;;;;;;;3.05;0.77;;;;;;;20.20;100.00;102314.94;2614886;36;20039;-57
2022/07/15 08:24:33;;;;;;;2.47;0.88;;;;;;;20.65;100.00;102313.69;2615389;36;20428;-57
2022/07/15 08:27:02;;;;;;;2.25;0.90;;;;;;;20.13;100.00;102319.34;2613812;36;20077;-61
2022/07/15 08:29:32;;;;;;;;;;;;;;;19.85;100.00;102315.94;2609880;36;20030;-58
2022/07/15 08:32:03;;;;;;;2.92;0.63;;;;;;;19.96;100.00;102318.38;2614329;36;19947;-57
2022/07/15 08:34:31;;;;;;;1.55;0.60;;;;;;;20.53;100.00;102309.56;2614414;36;20559;-58
2022/07/15 08:37:00;;;;;;;5.32;0.90;;;;;;;20.75;100.00;102321.78;2615090;36;20038;-60
2022/07/15 08:39:28;;;;;;;1.92;0.50;;;;;;;21.32;100.00;102314.66;2615621;36;20066;-60
2022/07/15 08:41:57;;;;;;;2.72;0.60;;;;;;;21.81;97.97;102313.75;2615404;36;20042;-58
2022/07/15 08:44:25;;;;;;;1.83;0.60;;;;;;;21.97;94.43;102321.91;2615311;36;20030;-58
2022/07/15 08:46:57;;;;;;;2.22;0.70;;;;;;;21.48;86.94;102320.13;2615631;36;20039;-57
2022/07/15 08:49:33;;;;;;;1.00;0.50;;;;;;;20.86;98.52;102325.22;2633414;36;20037;-57
2022/07/15 08:52:03;;;;;;;1.58;0.60;;;;;;;21.18;96.36;102318.91;2615724;36;20623;-60
2022/07/15 08:54:32;;;;;;;1.88;0.73;;;;;;;20.93;100.00;102323.53;2615172;31;20572;-57
2022/07/15 08:57:00;;;;;;;1.23;0.65;;;;;;;21.32;93.14;102318.25;2615328;36;20041;-58
2022/07/15 08:59:29;;;;;;;1.45;0.63;;;;;;;21.17;100.00;102317.19;2615891;36;20030;-58
2022/07/15 09:01:57;;;;;;;2.22;0.60;;;;;;;21.22;92.17;102314.81;2615231;36;20118;-59
2022/07/15 09:04:28;;;;;;;2.28;0.70;;;;;;;20.72;100.00;102307.59;2614751;36;20046;-58
2022/07/15 09:06:56;;;;;;;1.77;0.70;;;;;;;21.31;98.85;102308.31;2613216;36;20053;-58
2022/07/15 09:09:30;;;;;;;0.98;0.45;;;;;;;21.00;95.82;102310.88;2614697;36;20034;-58
2022/07/15 09:12:01;;;;;;;1.42;0.60;;;;;;;21.48;96.25;102311.91;2614439;36;20056;-58
2022/07/15 09:14:31;;;;;;;2.53;0.55;;;;;;;21.90;84.84;102309.94;2614718;36;20030;-58
2022/07/15 09:17:22;;;;;;;2.83;0.70;;;;;;;20.98;86.23;102313.78;2613969;36;20117;-57
2022/07/15 09:20:07;;;;;;;1.35;0.47;;;;;;;21.39;86.31;102312.06;2614494;36;20038;-58
2022/07/15 09:22:36;;;;;;;4.35;0.85;;;;;;;;;;2614385;36;20034;-57
2022/07/15 09:25:09;;;;;;;1.30;0.47;;;;;;;22.36;75.39;102303.78;2614631;36;20031;-57
2022/07/15 09:27:41;;;;;;;2.05;0.40;;;;;;;22.14;85.08;102303.53;2614608;36;20034;-60
2022/07/15 09:38:26;;;;;;;2.15;0.50;;;;;;;22.09;84.62;102294.13;2614470;31;20065;-57
2022/07/15 09:40:54;;;;;;;4.50;0.70;;;;;;;22.63;82.56;102291.47;2614635;36;20038;-58
2022/07/15 09:43:23;;;;;;;2.05;0.88;;;;;;;22.68;82.78;102289.03;2614671;31;20039;-59
2022/07/15 09:45:59;;;;;;;2.22;0.52;;;;;;;23.49;76.88;102293.22;2614380;36;20170;-58
2022/07/15 09:48:28;;;;;;;0.73;0.45;;;;;;;23.40;69.37;102301.53;2614592;36;20053;-60
2022/07/15 09:51:03;;;;;;;3.13;0.70;;;;;;;22.77;72.68;102297.22;2614570;36;20061;-59
2022/07/15 09:53:35;;;;;;;1.67;0.50;;;;;;;22.91;73.81;102289.03;2614247;36;20035;-59
2022/07/15 09:56:04;;;;;;;1.65;0.63;;;;;;;23.13;72.03;102286.50;2614621;36;20057;-61
2022/07/15 09:58:33;;;;;;;2.58;0.68;;;;;;;23.05;79.53;102292.88;2614384;36;20039;-59
2022/07/15 10:01:02;;;;;;;1.35;0.60;;;;;;;23.33;75.09;102292.31;2613956;36;20030;-58
2022/07/15 10:03:30;;;;;;;;;;;;;;;22.91;68.17;102294.53;2614156;36;20030;-59
2022/07/15 10:05:59;;;;;;;1.80;0.47;;;;;;;23.19;72.62;102299.50;2613111;36;19966;-59
2022/07/15 10:08:32;;;;;;;2.55;0.50;;;;;;;22.36;75.68;102301.94;2614088;31;20039;-60
2022/07/15 10:11:00;;;;;;;1.73;0.63;;;;;;;22.38;78.02;102299.00;2612188;36;20552;-58
2022/07/15 10:13:46;;;;;;;;;;;;;;;22.86;72.70;102282.38;2614620;36;20034;-60
2022/07/15 10:16:30;;;;;;;1.65;0.80;;;;;;;23.36;68.60;102291.94;2614546;36;20344;-59
2022/07/15 10:19:11;;;;;;;2.92;0.60;;;;;;;22.88;72.36;102291.31;2613597;36;20035;-59
2022/07/15 10:21:47;;;;;;;2.90;0.60;;;;;;;22.99;68.88;102287.28;2613826;36;20035;-59
2022/07/15 10:24:34;;;;;;;0.90;0.77;;;;;;;23.42;64.83;102288.47;2613701;36;20034;-58
2022/07/15 10:27:14;;;;;;;2.97;0.52;;;;;;;22.92;73.20;102279.78;2612540;36;20460;-58
2022/07/15 10:29:42;;;;;;;1.67;0.50;;;;;;;23.71;66.92;102278.53;2614224;36;20065;-59
2022/07/15 10:32:11;;;;;;;;;;;;;;;23.11;68.63;102283.06;2612419;36;20597;-58
2022/07/15 10:34:41;;;;;;;1.55;0.57;;;;;;;23.19;74.65;102282.13;2598207;36;20026;-62
2022/07/15 10:37:12;;;;;;;0.60;0.50;;;;;;;22.82;69.84;102272.81;2613432;36;20466;-59
2022/07/15 10:39:55;;;;;;;0.90;0.50;;;;;;;23.82;65.19;102273.59;2613420;36;20035;-58
2022/07/15 10:42:24;;;;;;;1.42;0.63;;;;;;;23.06;68.68;102269.88;2606115;31;20038;-60
2022/07/15 10:45:10;;;;;;;0.98;0.50;;;;;;;23.18;67.25;102262.06;2613378;36;20039;-58
2022/07/15 10:47:39;;;;;;;0.85;0.52;;;;;;;24.14;64.96;102262.25;2613872;31;20058;-58
2022/07/15 10:50:38;;;;;;;2.20;0.55;;;;;;;24.09;63.71;102264.69;2611974;36;20440;-58
2022/07/15 10:53:22;;;;;;;1.58;0.55;;;;;;;24.82;64.25;102253.69;2614156;31;20455;-58
2022/07/15 10:55:54;;;;;;;1.55;0.50;;;;;;;25.22;61.66;102263.34;2612855;36;20026;-58
2022/07/15 10:58:23;;;;;;;0.82;0.50;;;;;;;24.59;61.08;102258.53;2612288;36;20139;-58
2022/07/15 11:00:52;;;;;;;1.85;0.70;;;;;;;24.83;59.53;102255.38;2612612;36;21651;-58
2022/07/15 11:03:22;;;;;;;1.17;0.40;;;;;;;23.58;64.53;102257.19;2612258;31;21029;-58
2022/07/15 11:06:05;;;;;;;1.30;0.70;;;;;;;22.03;74.89;102243.59;2613754;31;20586;-57
2022/07/15 11:08:51;;;;;;;2.42;0.60;;;;;;;23.06;69.57;102234.16;2612588;36;20038;-61
2022/07/15 11:11:52;;;;;;;1.55;0.68;;;;;;;23.84;65.89;102214.63;2613507;36;20038;-58
2022/07/15 11:14:44;;;;;;;1.20;0.52;;;;;;;23.82;66.45;102237.88;2615986;31;20034;-59
2022/07/15 11:17:13;;;;;;;0.75;0.50;;;;;;;24.49;62.99;102226.63;2616589;36;20457;-58
2022/07/15 11:19:41;;;;;;;2.28;0.70;;;;;;;24.32;61.73;102230.69;2614798;36;20038;-58
2022/07/15 11:22:11;;;;;;;1.02;0.50;;;;;;;23.77;59.86;102228.28;2613915;36;20064;-58
2022/07/15 11:24:40;;;;;;;1.88;0.65;;;;;;;23.73;63.84;102237.09;2613858;36;20030;-58
2022/07/15 11:27:11;;;;;;;2.42;0.70;;;;;;;23.92;59.98;102228.28;2614004;36;20034;-60
2022/07/15 11:29:47;;;;;;;1.80;0.75;;;;;;;22.82;63.99;102238.00;2613692;36;20034;-59
2022/07/15 11:32:17;;;;;;;0.90;0.90;;;;;;;23.48;67.64;102233.78;2614218;36;20434;-59
2022/07/15 11:34:48;;;;;;;2.00;0.68;;;;;;;23.95;63.53;102233.44;2613509;36;20036;-60
2022/07/15 11:37:21;;;;;;;2.38;0.85;;;;;;;24.74;64.68;102234.53;2614497;36;20038;-57
2022/07/15 11:39:50;;;;;;;1.80;0.85;;;;;;;25.19;63.52;102229.63;2614497;36;20535;-57
2022/07/15 11:45:08;;;;;;;2.80;0.80;;;;;;;23.43;70.68;102237.09;2615206;36;20037;-57
2022/07/15 11:47:38;;;;;;;2.75;0.82;;;;;;;22.97;71.04;102232.53;2614793;36;20090;-56
2022/07/15 11:50:08;;;;;;;2.45;0.80;;;;;;;22.13;73.62;102224.16;2614993;36;20034;-59